createdAt,value
2019-06-26T00:00:26.995Z,88.18
2019-06-26T00:01:26.954Z,88.18
2019-06-26T00:02:26.903Z,88.37
2019-06-26T00:03:26.857Z,88.18
2019-06-26T00:04:26.809Z,88.09
2019-06-26T00:05:26.763Z,88.28
2019-06-26T00:06:26.723Z,88.18
2019-06-26T00:07:26.673Z,88.18
2019-06-26T00:08:26.624Z,88.18
2019-06-26T00:09:26.579Z,88.09
2019-06-26T00:10:26.533Z,88.09
2019-06-26T00:11:26.487Z,88.18
2019-06-26T00:12:26.441Z,88.28
2019-06-26T00:13:27.085Z,88.37
2019-06-26T00:14:26.349Z,88.09
2019-06-26T00:15:26.542Z,88.09
2019-06-26T00:16:26.271Z,88.18
2019-06-26T00:17:26.212Z,88.09
2019-06-26T00:18:26.167Z,88.09
2019-06-26T00:19:26.119Z,88.09
2019-06-26T00:20:26.072Z,88.09
2019-06-26T00:21:26.034Z,88.18
2019-06-26T00:22:25.980Z,88.18
2019-06-26T00:23:25.934Z,87.99
2019-06-26T00:24:25.892Z,87.99
2019-06-26T00:25:25.843Z,88.18
2019-06-26T00:26:25.807Z,87.99
2019-06-26T00:27:25.748Z,88.09
2019-06-26T00:28:25.706Z,88.09
2019-06-26T00:29:25.656Z,88.13
2019-06-26T00:30:25.617Z,88.09
2019-06-26T00:31:25.564Z,88.28
2019-06-26T00:32:25.522Z,88.18
2019-06-26T00:33:25.471Z,88.47
2019-06-26T00:34:25.426Z,87.99
2019-06-26T00:35:25.380Z,87.99
2019-06-26T00:36:25.332Z,88.18
2019-06-26T00:37:25.288Z,88.18
2019-06-26T00:38:25.241Z,87.99
2019-06-26T00:39:25.205Z,88.57
2019-06-26T00:40:25.148Z,88.67
2019-06-26T00:41:25.101Z,88.57
2019-06-26T00:42:25.056Z,88.57
2019-06-26T00:43:25.075Z,88.57
2019-06-26T00:44:24.963Z,88.67
2019-06-26T00:45:24.916Z,88.62
2019-06-26T00:46:24.870Z,88.57
2019-06-26T00:47:24.825Z,88.57
2019-06-26T00:48:24.777Z,88.47
2019-06-26T00:49:24.733Z,88.67
2019-06-26T00:50:24.691Z,88.57
2019-06-26T00:51:24.639Z,88.62
2019-06-26T00:52:24.592Z,88.67
2019-06-26T00:53:24.547Z,88.71
2019-06-26T00:54:24.516Z,88.47
2019-06-26T00:55:24.456Z,88.62
2019-06-26T00:56:24.441Z,88.47
2019-06-26T00:57:24.362Z,88.53
2019-06-26T00:58:24.314Z,88.57
2019-06-26T00:59:24.269Z,88.33
2019-06-26T01:00:24.222Z,88.53
2019-06-26T01:01:24.198Z,88.53
2019-06-26T01:02:24.131Z,88.71
2019-06-26T01:03:24.085Z,88.28
2019-06-26T01:04:24.038Z,88.57
2019-06-26T01:05:23.995Z,88.33
2019-06-26T01:06:23.944Z,88.23
2019-06-26T01:07:23.902Z,88.13
2019-06-26T01:08:23.852Z,88.28
2019-06-26T01:09:23.807Z,88.23
2019-06-26T01:10:23.760Z,88.33
2019-06-26T01:11:23.726Z,88.53
2019-06-26T01:12:23.669Z,88.33
2019-06-26T01:13:23.620Z,88.23
2019-06-26T01:14:23.576Z,88.33
2019-06-26T01:15:23.551Z,88.33
2019-06-26T01:16:23.483Z,88.33
2019-06-26T01:17:23.437Z,88.53
2019-06-26T01:18:24.037Z,88.33
2019-06-26T01:19:23.348Z,88.33
2019-06-26T01:20:23.305Z,88.53
2019-06-26T01:21:23.249Z,88.33
2019-06-26T01:22:23.208Z,88.33
2019-06-26T01:23:23.160Z,88.43
2019-06-26T01:24:23.110Z,88.47
2019-06-26T01:25:23.064Z,88.43
2019-06-26T01:26:23.020Z,88.43
2019-06-26T01:27:22.971Z,88.43
2019-06-26T01:28:22.924Z,88.04
2019-06-26T01:29:22.879Z,88.43
2019-06-26T01:30:22.834Z,88.04
2019-06-26T01:31:22.799Z,88.43
2019-06-26T01:32:22.739Z,88.43
2019-06-26T01:33:22.693Z,88.04
2019-06-26T01:34:22.646Z,88.04
2019-06-26T01:35:22.604Z,88.62
2019-06-26T01:36:22.554Z,88.23
2019-06-26T01:37:22.549Z,88.04
2019-06-26T01:38:22.461Z,88.04
2019-06-26T01:39:22.415Z,88.62
2019-06-26T01:40:22.368Z,88.53
2019-06-26T01:41:22.322Z,88.04
2019-06-26T01:42:22.276Z,88.23
2019-06-26T01:43:22.234Z,88.13
2019-06-26T01:44:22.182Z,88.33
2019-06-26T01:45:22.136Z,88.04
2019-06-26T01:46:22.089Z,88.13
2019-06-26T01:47:22.044Z,88.53
2019-06-26T01:48:22.003Z,88.04
2019-06-26T01:49:21.951Z,88.04
2019-06-26T01:50:21.961Z,88.53
2019-06-26T01:51:21.862Z,87.95
2019-06-26T01:52:21.811Z,88.04
2019-06-26T01:53:21.769Z,88.43
2019-06-26T01:54:21.719Z,88.04
2019-06-26T01:55:21.672Z,88.62
2019-06-26T01:56:21.628Z,88.04
2019-06-26T01:57:21.581Z,88.04
2019-06-26T01:58:21.535Z,87.95
2019-06-26T01:59:21.489Z,88.04
2019-06-26T02:00:21.444Z,88.62
2019-06-26T02:01:21.394Z,88.04
2019-06-26T02:02:21.349Z,88.04
2019-06-26T02:03:21.302Z,88.04
2019-06-26T02:04:21.267Z,88.04
2019-06-26T02:05:21.208Z,88.43
2019-06-26T02:06:21.163Z,88.53
2019-06-26T02:07:21.115Z,88.53
2019-06-26T02:08:21.069Z,88.04
2019-06-26T02:09:21.021Z,88.43
2019-06-26T02:10:20.977Z,88.43
2019-06-26T02:11:20.947Z,88.23
2019-06-26T02:12:20.888Z,88.53
2019-06-26T02:13:20.836Z,88.33
2019-06-26T02:14:30.487Z,88.33
2019-06-26T02:15:20.743Z,88.33
2019-06-26T02:16:20.698Z,88.43
2019-06-26T02:17:20.650Z,88.43
2019-06-26T02:18:20.605Z,88.43
2019-06-26T02:19:20.557Z,88.04
2019-06-26T02:20:20.509Z,88.43
2019-06-26T02:21:20.466Z,88.48
2019-06-26T02:22:20.417Z,88.43
2019-06-26T02:23:20.371Z,88.33
2019-06-26T02:24:20.323Z,88.04
2019-06-26T02:25:20.322Z,88.04
2019-06-26T02:26:20.231Z,88.43
2019-06-26T02:27:20.185Z,88.33
2019-06-26T02:28:20.136Z,88.43
2019-06-26T02:29:20.091Z,88.53
2019-06-26T02:30:20.045Z,88.39
2019-06-26T02:31:20.005Z,88.29
2019-06-26T02:32:19.976Z,88.43
2019-06-26T02:33:19.904Z,88.43
2019-06-26T02:34:19.858Z,88.33
2019-06-26T02:35:19.905Z,88.04
2019-06-26T02:36:19.766Z,88.39
2019-06-26T02:37:19.720Z,88.39
2019-06-26T02:38:19.675Z,87.99
2019-06-26T02:39:19.625Z,87.99
2019-06-26T02:40:19.582Z,87.99
2019-06-26T02:41:19.539Z,87.99
2019-06-26T02:42:19.486Z,87.99
2019-06-26T02:43:19.440Z,88.48
2019-06-26T02:44:19.394Z,88.48
2019-06-26T02:45:19.346Z,87.99
2019-06-26T02:46:19.309Z,87.99
2019-06-26T02:47:20.792Z,88.19
2019-06-26T02:48:19.224Z,88.09
2019-06-26T02:49:19.162Z,88.29
2019-06-26T02:50:19.118Z,88.48
2019-06-26T02:51:19.069Z,88.48
2019-06-26T02:52:19.022Z,88.48
2019-06-26T02:53:18.974Z,87.99
2019-06-26T02:54:18.926Z,88.29
2019-06-26T02:55:18.888Z,88.29
2019-06-26T02:56:18.835Z,88.09
2019-06-26T02:57:18.793Z,87.99
2019-06-26T02:58:18.741Z,88.29
2019-06-26T02:59:18.694Z,88.19
2019-06-26T03:00:18.650Z,88.09
2019-06-26T03:01:18.605Z,88.29
2019-06-26T03:02:18.564Z,87.99
2019-06-26T03:03:18.516Z,88.09
2019-06-26T03:04:18.466Z,88.19
2019-06-26T03:05:18.534Z,88.19
2019-06-26T03:06:18.367Z,88.19
2019-06-26T03:07:18.321Z,88.09
2019-06-26T03:08:18.275Z,88.19
2019-06-26T03:09:18.230Z,88.29
2019-06-26T03:10:18.180Z,88.29
2019-06-26T03:11:18.133Z,87.99
2019-06-26T03:12:18.086Z,88.39
2019-06-26T03:13:18.040Z,88.09
2019-06-26T03:14:17.993Z,88.48
2019-06-26T03:15:17.948Z,87.99
2019-06-26T03:16:17.903Z,87.99
2019-06-26T03:17:17.856Z,88.19
2019-06-26T03:18:17.807Z,88.29
2019-06-26T03:19:17.760Z,88.39
2019-06-26T03:20:17.713Z,88.19
2019-06-26T03:21:17.666Z,88.19
2019-06-26T03:22:17.620Z,88.57
2019-06-26T03:23:17.575Z,88.19
2019-06-26T03:24:17.526Z,88.19
2019-06-26T03:25:17.480Z,88.29
2019-06-26T03:26:17.434Z,88.57
2019-06-26T03:27:17.387Z,88.19
2019-06-26T03:28:17.339Z,88.19
2019-06-26T03:29:17.292Z,88.19
2019-06-26T03:30:17.246Z,88.39
2019-06-26T03:31:53.279Z,88.29
2019-06-26T03:32:17.153Z,88.29
2019-06-26T03:33:31.635Z,88.48
2019-06-26T03:34:17.059Z,88.57
2019-06-26T03:35:17.014Z,88.57
2019-06-26T03:36:16.988Z,88.19
2019-06-26T03:37:16.921Z,88.09
2019-06-26T03:38:16.874Z,88.39
2019-06-26T03:39:23.637Z,88.39
2019-06-26T03:40:16.780Z,88.39
2019-06-26T03:41:16.788Z,88.39
2019-06-26T03:42:16.684Z,88.39
2019-06-26T03:43:16.639Z,88.19
2019-06-26T03:44:16.592Z,88.39
2019-06-26T03:45:25.549Z,88.39
2019-06-26T03:46:16.498Z,88.29
2019-06-26T03:47:16.466Z,88.09
2019-06-26T03:48:16.404Z,88.09
2019-06-26T03:49:16.358Z,88.29
2019-06-26T03:50:16.313Z,88.19
2019-06-26T03:51:16.274Z,88.29
2019-06-26T03:52:16.217Z,88.19
2019-06-26T03:53:16.177Z,87.71
2019-06-26T03:54:16.125Z,88.29
2019-06-26T03:55:16.080Z,87.99
2019-06-26T03:56:16.038Z,87.90
2019-06-26T03:57:15.985Z,87.99
2019-06-26T03:58:15.936Z,87.90
2019-06-26T03:59:30.644Z,87.99
2019-06-26T04:00:15.845Z,87.99
2019-06-26T04:01:15.800Z,87.99
2019-06-26T04:02:15.752Z,87.99
2019-06-26T04:03:15.703Z,87.95
2019-06-26T04:04:15.657Z,88.05
2019-06-26T04:05:15.610Z,87.99
2019-06-26T04:06:15.562Z,87.90
2019-06-26T04:07:15.516Z,87.95
2019-06-26T04:08:15.470Z,87.95
2019-06-26T04:09:15.438Z,87.95
2019-06-26T04:10:15.382Z,87.95
2019-06-26T04:11:15.329Z,87.95
2019-06-26T04:12:15.281Z,88.43
2019-06-26T04:13:15.234Z,87.90
2019-06-26T04:14:15.190Z,87.90
2019-06-26T04:15:15.142Z,88.39
2019-06-26T04:16:15.096Z,87.99
2019-06-26T04:17:15.050Z,88.34
2019-06-26T04:18:15.004Z,88.43
2019-06-26T04:19:14.955Z,87.95
2019-06-26T04:20:14.907Z,88.34
2019-06-26T04:21:14.862Z,88.43
2019-06-26T04:22:14.819Z,87.95
2019-06-26T04:23:14.765Z,87.95
2019-06-26T04:24:14.719Z,87.85
2019-06-26T04:25:14.678Z,87.95
2019-06-26T04:26:14.634Z,88.34
2019-06-26T04:27:14.581Z,87.90
2019-06-26T04:28:14.531Z,87.95
2019-06-26T04:29:14.484Z,88.34
2019-06-26T04:30:14.442Z,88.34
2019-06-26T04:31:14.391Z,88.53
2019-06-26T04:32:14.345Z,88.43
2019-06-26T04:33:14.296Z,88.34
2019-06-26T04:34:14.254Z,88.53
2019-06-26T04:35:14.206Z,88.63
2019-06-26T04:36:14.162Z,88.63
2019-06-26T04:37:14.115Z,88.29
2019-06-26T04:38:14.062Z,88.15
2019-06-26T04:39:14.014Z,88.15
2019-06-26T04:40:13.967Z,88.24
2019-06-26T04:41:13.921Z,88.34
2019-06-26T04:42:28.652Z,88.34
2019-06-26T04:43:13.831Z,88.24
2019-06-26T04:44:13.779Z,88.53
2019-06-26T04:45:13.733Z,88.24
2019-06-26T04:46:13.686Z,88.57
2019-06-26T04:47:13.650Z,88.34
2019-06-26T04:48:13.595Z,88.53
2019-06-26T04:49:13.545Z,89.01
2019-06-26T04:50:13.498Z,88.34
2019-06-26T04:51:13.454Z,88.34
2019-06-26T04:52:13.405Z,89.01
2019-06-26T04:53:13.367Z,89.01
2019-06-26T04:54:13.316Z,88.96
2019-06-26T04:55:13.298Z,89.11
2019-06-26T04:56:13.217Z,89.11
2019-06-26T04:57:13.176Z,89.11
2019-06-26T04:58:13.126Z,88.92
2019-06-26T04:59:13.080Z,89.01
2019-06-26T05:00:13.029Z,89.11
2019-06-26T05:01:12.981Z,89.01
2019-06-26T05:02:12.937Z,88.92
2019-06-26T05:03:12.889Z,89.01
2019-06-26T05:04:12.860Z,88.73
2019-06-26T05:05:12.796Z,89.01
2019-06-26T05:06:12.753Z,89.01
2019-06-26T05:07:12.710Z,88.73
2019-06-26T05:08:12.653Z,89.01
2019-06-26T05:09:12.615Z,88.82
2019-06-26T05:10:12.600Z,88.82
2019-06-26T05:11:13.063Z,88.73
2019-06-26T05:12:12.466Z,88.82
2019-06-26T05:13:12.417Z,88.82
2019-06-26T05:14:12.371Z,89.01
2019-06-26T05:15:12.325Z,88.82
2019-06-26T05:16:15.813Z,88.92
2019-06-26T05:17:12.230Z,88.82
2019-06-26T05:18:12.205Z,88.92
2019-06-26T05:19:12.137Z,88.82
2019-06-26T05:20:12.090Z,88.82
2019-06-26T05:21:12.638Z,88.82
2019-06-26T05:22:11.997Z,88.82
2019-06-26T05:23:11.952Z,88.82
2019-06-26T05:24:11.902Z,88.92
2019-06-26T05:25:11.855Z,88.63
2019-06-26T05:26:11.808Z,88.82
2019-06-26T05:27:11.761Z,88.63
2019-06-26T05:28:11.713Z,88.73
2019-06-26T05:29:11.667Z,88.63
2019-06-26T05:30:11.621Z,88.63
2019-06-26T05:31:11.585Z,88.77
2019-06-26T05:32:11.531Z,88.82
2019-06-26T05:33:11.478Z,88.63
2019-06-26T05:34:11.439Z,88.63
2019-06-26T05:35:11.386Z,88.63
2019-06-26T05:36:11.338Z,88.92
2019-06-26T05:37:11.291Z,88.73
2019-06-26T05:38:11.246Z,88.73
2019-06-26T05:39:11.199Z,88.73
2019-06-26T05:40:11.161Z,88.73
2019-06-26T05:41:17.672Z,88.63
2019-06-26T05:42:11.057Z,88.82
2019-06-26T05:43:11.009Z,88.73
2019-06-26T05:44:10.963Z,88.73
2019-06-26T05:45:10.916Z,88.67
2019-06-26T05:46:10.868Z,88.53
2019-06-26T05:47:10.831Z,88.73
2019-06-26T05:48:10.776Z,88.73
2019-06-26T05:49:10.729Z,88.82
2019-06-26T05:50:11.007Z,88.73
2019-06-26T05:51:10.640Z,88.73
2019-06-26T05:52:10.586Z,88.73
2019-06-26T05:53:10.584Z,88.73
2019-06-26T05:54:10.497Z,88.77
2019-06-26T05:55:10.451Z,88.82
2019-06-26T05:56:10.401Z,88.73
2019-06-26T05:57:10.356Z,89.06
2019-06-26T05:58:10.309Z,88.96
2019-06-26T05:59:10.257Z,89.06
2019-06-26T06:00:10.241Z,89.06
2019-06-26T06:01:10.169Z,88.96
2019-06-26T06:02:10.145Z,88.43
2019-06-26T06:03:10.081Z,89.06
2019-06-26T06:04:10.022Z,88.96
2019-06-26T06:05:09.974Z,88.48
2019-06-26T06:06:09.970Z,88.29
2019-06-26T06:07:09.880Z,88.77
2019-06-26T06:08:09.836Z,89.06
2019-06-26T06:09:09.788Z,89.15
2019-06-26T06:10:09.741Z,89.15
2019-06-26T06:11:09.695Z,88.87
2019-06-26T06:12:09.646Z,88.87
2019-06-26T06:13:09.603Z,88.87
2019-06-26T06:14:09.552Z,88.87
2019-06-26T06:15:09.509Z,88.87
2019-06-26T06:16:09.458Z,88.87
2019-06-26T06:17:09.417Z,89.06
2019-06-26T06:18:09.366Z,88.96
2019-06-26T06:19:09.319Z,88.77
2019-06-26T06:20:09.286Z,88.96
2019-06-26T06:21:09.233Z,89.06
2019-06-26T06:22:09.178Z,88.77
2019-06-26T06:23:09.131Z,88.67
2019-06-26T06:24:09.082Z,88.77
2019-06-26T06:25:09.056Z,88.77
2019-06-26T06:26:08.992Z,88.77
2019-06-26T06:27:08.943Z,88.77
2019-06-26T06:28:08.893Z,88.77
2019-06-26T06:29:08.850Z,88.77
2019-06-26T06:30:08.806Z,88.67
2019-06-26T06:31:08.755Z,88.67
2019-06-26T06:32:08.779Z,88.57
2019-06-26T06:33:08.659Z,88.77
2019-06-26T06:34:08.620Z,88.87
2019-06-26T06:35:08.566Z,88.67
2019-06-26T06:36:09.747Z,88.77
2019-06-26T06:37:08.472Z,88.77
2019-06-26T06:38:08.427Z,88.87
2019-06-26T06:39:08.378Z,88.96
2019-06-26T06:40:08.426Z,88.87
2019-06-26T06:41:08.283Z,88.87
2019-06-26T06:42:08.238Z,89.06
2019-06-26T06:43:08.190Z,89.06
2019-06-26T06:44:09.119Z,89.45
2019-06-26T06:45:08.095Z,89.54
2019-06-26T06:46:08.065Z,89.06
2019-06-26T06:47:09.095Z,89.45
2019-06-26T06:48:07.955Z,89.15
2019-06-26T06:49:07.908Z,89.15
2019-06-26T06:50:07.860Z,89.25
2019-06-26T06:51:08.629Z,89.54
2019-06-26T06:52:07.767Z,89.15
2019-06-26T06:53:07.720Z,89.54
2019-06-26T06:54:07.674Z,89.45
2019-06-26T06:55:07.630Z,89.15
2019-06-26T06:56:07.579Z,89.35
2019-06-26T06:57:07.535Z,89.45
2019-06-26T06:58:07.485Z,89.25
2019-06-26T06:59:07.439Z,89.35
2019-06-26T07:00:07.407Z,89.15
2019-06-26T07:01:07.345Z,89.69
2019-06-26T07:02:07.300Z,89.15
2019-06-26T07:03:07.250Z,89.64
2019-06-26T07:04:07.206Z,89.74
2019-06-26T07:05:07.179Z,89.74
2019-06-26T07:06:07.115Z,89.64
2019-06-26T07:07:07.067Z,89.74
2019-06-26T07:08:07.016Z,89.74
2019-06-26T07:09:06.974Z,89.83
2019-06-26T07:10:06.923Z,89.74
2019-06-26T07:11:06.876Z,89.74
2019-06-26T07:12:06.834Z,89.78
2019-06-26T07:13:06.787Z,89.74
2019-06-26T07:14:06.741Z,89.74
2019-06-26T07:15:06.688Z,89.78
2019-06-26T07:16:06.643Z,89.35
2019-06-26T07:17:20.040Z,89.78
2019-06-26T07:18:06.547Z,89.88
2019-06-26T07:19:06.500Z,89.49
2019-06-26T07:20:06.514Z,89.69
2019-06-26T07:21:06.419Z,89.59
2019-06-26T07:22:07.456Z,89.39
2019-06-26T07:23:06.315Z,89.78
2019-06-26T07:24:06.265Z,90.12
2019-06-26T07:25:06.219Z,89.39
2019-06-26T07:26:06.171Z,90.17
2019-06-26T07:27:06.128Z,89.88
2019-06-26T07:28:06.126Z,90.07
2019-06-26T07:29:06.031Z,90.07
2019-06-26T07:30:05.984Z,90.36
2019-06-26T07:31:05.940Z,90.17
2019-06-26T07:32:05.897Z,90.36
2019-06-26T07:33:05.844Z,90.26
2019-06-26T07:34:05.828Z,90.36
2019-06-26T07:35:05.750Z,90.17
2019-06-26T07:36:05.703Z,90.26
2019-06-26T07:37:05.659Z,90.36
2019-06-26T07:38:05.616Z,90.17
2019-06-26T07:39:05.589Z,90.46
2019-06-26T07:40:05.519Z,89.88
2019-06-26T07:41:05.473Z,89.88
2019-06-26T07:42:05.424Z,89.69
2019-06-26T07:43:05.376Z,90.17
2019-06-26T07:44:05.344Z,89.59
2019-06-26T07:45:05.283Z,89.78
2019-06-26T07:46:05.242Z,89.97
2019-06-26T07:47:12.677Z,89.88
2019-06-26T07:48:05.144Z,89.97
2019-06-26T07:49:05.095Z,90.36
2019-06-26T07:50:05.050Z,89.69
2019-06-26T07:51:05.011Z,89.97
2019-06-26T07:52:04.953Z,89.78
2019-06-26T07:53:04.907Z,89.97
2019-06-26T07:54:04.863Z,89.78
2019-06-26T07:55:04.814Z,90.46
2019-06-26T07:56:04.767Z,89.78
2019-06-26T07:57:04.731Z,90.36
2019-06-26T07:58:04.867Z,90.36
2019-06-26T07:59:04.632Z,89.78
2019-06-26T08:00:04.587Z,90.36
2019-06-26T08:01:04.538Z,90.26
2019-06-26T08:02:04.524Z,90.56
2019-06-26T08:03:04.859Z,90.56
2019-06-26T08:04:04.393Z,90.56
2019-06-26T08:05:04.348Z,90.46
2019-06-26T08:06:04.308Z,90.07
2019-06-26T08:07:04.257Z,90.36
2019-06-26T08:08:05.144Z,90.75
2019-06-26T08:09:04.160Z,90.07
2019-06-26T08:10:04.113Z,90.26
2019-06-26T08:11:06.537Z,90.80
2019-06-26T08:12:04.030Z,90.56
2019-06-26T08:13:03.974Z,90.84
2019-06-26T08:14:03.937Z,90.56
2019-06-26T08:15:03.892Z,91.14
2019-06-26T08:16:03.834Z,90.56
2019-06-26T08:17:03.789Z,90.99
2019-06-26T08:18:03.745Z,91.28
2019-06-26T08:19:03.702Z,91.08
2019-06-26T08:20:03.648Z,91.08
2019-06-26T08:21:11.894Z,90.99
2019-06-26T08:22:03.564Z,90.80
2019-06-26T08:23:03.506Z,90.99
2019-06-26T08:24:03.462Z,91.18
2019-06-26T08:25:03.415Z,91.38
2019-06-26T08:26:03.367Z,91.28
2019-06-26T08:27:03.334Z,91.08
2019-06-26T08:28:03.273Z,90.80
2019-06-26T08:29:03.229Z,90.80
2019-06-26T08:30:03.234Z,91.18
2019-06-26T08:31:03.145Z,91.18
2019-06-26T08:32:03.087Z,90.99
2019-06-26T08:33:03.040Z,90.70
2019-06-26T08:34:03.649Z,91.18
2019-06-26T08:35:02.946Z,91.18
2019-06-26T08:36:02.953Z,90.60
2019-06-26T08:37:02.857Z,90.70
2019-06-26T08:38:10.232Z,90.70
2019-06-26T08:39:02.759Z,90.99
2019-06-26T08:40:02.712Z,91.38
2019-06-26T08:41:02.675Z,91.28
2019-06-26T08:42:02.637Z,90.99
2019-06-26T08:43:02.576Z,91.28
2019-06-26T08:44:02.530Z,91.38
2019-06-26T08:45:02.480Z,91.47
2019-06-26T08:46:02.433Z,91.66
2019-06-26T08:47:02.390Z,91.66
2019-06-26T08:48:16.768Z,91.56
2019-06-26T08:49:02.349Z,91.76
2019-06-26T08:50:02.712Z,91.76
2019-06-26T08:51:02.221Z,92.05
2019-06-26T08:52:02.225Z,91.47
2019-06-26T08:53:02.282Z,91.66
2019-06-26T08:54:04.656Z,91.56
2019-06-26T08:55:02.019Z,91.47
2019-06-26T08:56:01.968Z,91.96
2019-06-26T08:57:01.921Z,92.05
2019-06-26T08:58:01.877Z,91.56
2019-06-26T08:59:01.828Z,91.76
2019-06-26T09:00:01.784Z,91.56
2019-06-26T09:01:02.698Z,91.56
2019-06-26T09:02:01.689Z,91.76
2019-06-26T09:03:01.642Z,91.96
2019-06-26T09:04:01.596Z,91.56
2019-06-26T09:05:01.548Z,91.66
2019-06-26T09:06:01.627Z,91.96
2019-06-26T09:07:01.469Z,92.24
2019-06-26T09:08:01.441Z,92.49
2019-06-26T09:09:01.367Z,91.96
2019-06-26T09:10:01.335Z,92.63
2019-06-26T09:11:01.281Z,92.34
2019-06-26T09:12:01.225Z,92.73
2019-06-26T09:13:01.177Z,91.96
2019-06-26T09:14:01.476Z,92.24
2019-06-26T09:15:01.093Z,92.49
2019-06-26T09:16:01.047Z,92.49
2019-06-26T09:17:00.992Z,93.26
2019-06-26T09:18:00.949Z,92.77
2019-06-26T09:19:00.897Z,92.77
2019-06-26T09:20:00.859Z,92.58
2019-06-26T09:21:00.808Z,92.97
2019-06-26T09:22:00.758Z,93.26
2019-06-26T09:23:00.722Z,93.35
2019-06-26T09:24:00.664Z,93.35
2019-06-26T09:25:00.640Z,93.16
2019-06-26T09:26:00.571Z,93.16
2019-06-26T09:27:00.528Z,93.35
2019-06-26T09:28:00.479Z,93.07
2019-06-26T09:29:00.438Z,93.55
2019-06-26T09:30:00.386Z,93.74
2019-06-26T09:31:00.358Z,93.74
2019-06-26T09:32:00.295Z,93.55
2019-06-26T09:33:00.308Z,93.35
2019-06-26T09:34:00.238Z,93.35
2019-06-26T09:35:00.191Z,93.74
2019-06-26T09:36:00.158Z,93.55
2019-06-26T09:37:00.061Z,93.55
2019-06-26T09:38:00.124Z,93.55
2019-06-26T09:38:59.978Z,93.45
2019-06-26T09:39:59.925Z,93.55
2019-06-26T09:40:59.888Z,93.26
2019-06-26T09:41:59.828Z,93.74
2019-06-26T09:42:59.788Z,93.55
2019-06-26T09:43:59.741Z,93.55
2019-06-26T09:44:59.693Z,93.26
2019-06-26T09:45:59.643Z,93.74
2019-06-26T09:46:59.597Z,93.65
2019-06-26T09:47:59.552Z,93.55
2019-06-26T09:48:59.514Z,93.55
2019-06-26T09:49:59.526Z,93.55
2019-06-26T09:50:59.456Z,93.55
2019-06-26T09:51:59.379Z,93.45
2019-06-26T09:52:59.323Z,93.45
2019-06-26T09:53:59.273Z,93.40
2019-06-26T09:54:59.234Z,93.16
2019-06-26T09:55:59.179Z,93.35
2019-06-26T09:56:59.139Z,93.65
2019-06-26T09:57:59.088Z,93.55
2019-06-26T09:58:59.307Z,93.65
2019-06-26T09:59:58.995Z,93.45
2019-06-26T10:00:58.957Z,93.65
2019-06-26T10:01:58.904Z,93.65
2019-06-26T10:03:24.734Z,93.40
2019-06-26T10:03:58.817Z,93.35
2019-06-26T10:04:58.811Z,93.35
2019-06-26T10:05:58.720Z,93.21
2019-06-26T10:06:58.671Z,93.40
2019-06-26T10:07:58.624Z,93.40
2019-06-26T10:08:58.581Z,93.60
2019-06-26T10:09:58.547Z,93.70
2019-06-26T10:10:58.487Z,93.70
2019-06-26T10:11:58.439Z,93.40
2019-06-26T10:12:58.394Z,93.70
2019-06-26T10:13:58.347Z,93.40
2019-06-26T10:14:58.302Z,93.60
2019-06-26T10:16:00.571Z,93.88
2019-06-26T10:16:58.213Z,93.30
2019-06-26T10:17:58.162Z,93.70
2019-06-26T10:19:09.402Z,93.79
2019-06-26T10:19:58.077Z,93.40
2019-06-26T10:20:58.026Z,93.30
2019-06-26T10:21:57.978Z,93.30
2019-06-26T10:22:57.931Z,93.60
2019-06-26T10:23:57.894Z,93.79
2019-06-26T10:24:57.838Z,93.79
2019-06-26T10:25:57.793Z,93.70
2019-06-26T10:26:57.747Z,94.18
2019-06-26T10:27:57.700Z,93.98
2019-06-26T10:28:57.670Z,93.79
2019-06-26T10:29:57.612Z,93.79
2019-06-26T10:30:57.570Z,93.79
2019-06-26T10:31:57.515Z,94.18
2019-06-26T10:32:57.470Z,93.70
2019-06-26T10:33:57.424Z,93.88
2019-06-26T10:34:57.388Z,93.70
2019-06-26T10:35:57.331Z,93.70
2019-06-26T10:36:57.286Z,94.27
2019-06-26T10:37:57.241Z,94.47
2019-06-26T10:38:57.194Z,94.27
2019-06-26T10:39:57.146Z,93.79
2019-06-26T10:40:57.101Z,93.70
2019-06-26T10:41:57.058Z,94.57
2019-06-26T10:42:57.012Z,94.47
2019-06-26T10:43:56.963Z,94.37
2019-06-26T10:44:56.916Z,94.47
2019-06-26T10:45:56.875Z,94.37
2019-06-26T10:46:56.824Z,93.79
2019-06-26T10:47:56.788Z,93.79
2019-06-26T10:48:56.732Z,94.18
2019-06-26T10:49:56.711Z,93.79
2019-06-26T10:50:58.930Z,93.79
2019-06-26T10:51:56.595Z,93.64
2019-06-26T10:52:56.550Z,93.50
2019-06-26T10:53:56.504Z,94.47
2019-06-26T10:54:56.456Z,93.74
2019-06-26T10:55:56.411Z,94.08
2019-06-26T10:56:56.365Z,94.23
2019-06-26T10:57:56.321Z,94.13
2019-06-26T10:58:56.273Z,94.08
2019-06-26T10:59:56.237Z,94.61
2019-06-26T11:00:56.182Z,94.61
2019-06-26T11:01:56.135Z,94.61
2019-06-26T11:02:56.126Z,93.84
2019-06-26T11:03:56.042Z,93.84
2019-06-26T11:04:56.007Z,94.23
2019-06-26T11:05:55.952Z,93.84
2019-06-26T11:06:55.906Z,94.51
2019-06-26T11:07:55.857Z,94.61
2019-06-26T11:08:55.813Z,94.32
2019-06-26T11:09:55.772Z,94.42
2019-06-26T11:10:55.746Z,94.81
2019-06-26T11:11:55.674Z,94.61
2019-06-26T11:12:55.636Z,94.61
2019-06-26T11:13:55.584Z,94.71
2019-06-26T11:14:55.567Z,95.00
2019-06-26T11:15:55.490Z,94.51
2019-06-26T11:16:55.444Z,94.51
2019-06-26T11:17:55.402Z,94.61
2019-06-26T11:18:55.355Z,94.71
2019-06-26T11:19:55.729Z,94.81
2019-06-26T11:20:55.263Z,94.71
2019-06-26T11:21:55.216Z,94.90
2019-06-26T11:22:55.169Z,94.71
2019-06-26T11:23:55.124Z,94.81
2019-06-26T11:24:55.079Z,94.71
2019-06-26T11:25:55.038Z,94.81
2019-06-26T11:26:54.991Z,94.61
2019-06-26T11:27:54.943Z,94.90
2019-06-26T11:28:54.894Z,94.90
2019-06-26T11:29:54.854Z,94.90
2019-06-26T11:30:54.803Z,94.81
2019-06-26T11:31:54.759Z,95.10
2019-06-26T11:32:54.713Z,94.90
2019-06-26T11:33:54.667Z,95.19
2019-06-26T11:34:54.621Z,94.71
2019-06-26T11:35:54.576Z,94.81
2019-06-26T11:37:03.750Z,94.81
2019-06-26T11:37:54.483Z,94.90
2019-06-26T11:38:54.449Z,94.61
2019-06-26T11:39:54.394Z,94.76
2019-06-26T11:40:54.359Z,94.81
2019-06-26T11:41:54.299Z,94.71
2019-06-26T11:42:54.256Z,94.95
2019-06-26T11:43:54.208Z,94.81
2019-06-26T11:44:54.698Z,94.85
2019-06-26T11:45:54.116Z,94.66
2019-06-26T11:46:54.072Z,94.85
2019-06-26T11:47:54.081Z,94.85
2019-06-26T11:48:54.073Z,94.81
2019-06-26T11:49:59.768Z,94.76
2019-06-26T11:50:53.888Z,94.95
2019-06-26T11:51:53.841Z,94.76
2019-06-26T11:52:53.800Z,94.71
2019-06-26T11:53:53.780Z,94.95
2019-06-26T11:55:02.791Z,94.95
2019-06-26T11:55:53.658Z,94.76
2019-06-26T11:56:53.616Z,94.56
2019-06-26T11:57:53.568Z,94.27
2019-06-26T11:58:53.529Z,94.56
2019-06-26T11:59:53.484Z,93.88
2019-06-26T12:00:53.432Z,93.98
2019-06-26T12:01:53.463Z,94.46
2019-06-26T12:02:53.345Z,93.79
2019-06-26T12:03:53.297Z,94.17
2019-06-26T12:04:53.250Z,93.79
2019-06-26T12:05:53.201Z,93.69
2019-06-26T12:06:53.187Z,94.07
2019-06-26T12:07:53.112Z,94.17
2019-06-26T12:08:53.069Z,93.79
2019-06-26T12:09:53.072Z,93.79
2019-06-26T12:10:52.974Z,93.79
2019-06-26T12:11:52.941Z,94.07
2019-06-26T12:12:52.882Z,94.56
2019-06-26T12:13:52.837Z,94.07
2019-06-26T12:14:52.793Z,94.27
2019-06-26T12:15:52.759Z,93.79
2019-06-26T12:16:52.746Z,93.79
2019-06-26T12:17:52.655Z,94.07
2019-06-26T12:18:52.610Z,93.79
2019-06-26T12:19:52.797Z,94.27
2019-06-26T12:20:52.520Z,93.69
2019-06-26T12:21:52.486Z,94.27
2019-06-26T12:22:52.437Z,94.07
2019-06-26T12:23:52.381Z,93.69
2019-06-26T12:24:52.335Z,93.79
2019-06-26T12:25:52.325Z,94.56
2019-06-26T12:26:52.260Z,94.46
2019-06-26T12:27:52.199Z,94.56
2019-06-26T12:28:52.775Z,94.56
2019-06-26T12:29:52.109Z,94.51
2019-06-26T12:30:52.063Z,93.98
2019-06-26T12:31:52.023Z,94.27
2019-06-26T12:33:03.002Z,93.79
2019-06-26T12:33:51.932Z,94.07
2019-06-26T12:34:51.883Z,94.46
2019-06-26T12:35:51.835Z,94.32
2019-06-26T12:36:51.792Z,94.80
2019-06-26T12:37:51.744Z,94.02
2019-06-26T12:38:51.699Z,94.32
2019-06-26T12:39:51.654Z,94.22
2019-06-26T12:40:51.614Z,94.22
2019-06-26T12:41:51.564Z,94.51
2019-06-26T12:42:54.646Z,93.83
2019-06-26T12:43:51.471Z,94.22
2019-06-26T12:44:51.426Z,94.12
2019-06-26T12:45:51.384Z,94.02
2019-06-26T12:46:51.339Z,94.12
2019-06-26T12:47:51.289Z,94.80
2019-06-26T12:48:51.244Z,94.60
2019-06-26T12:49:51.200Z,94.22
2019-06-26T12:50:51.158Z,94.51
2019-06-26T12:51:51.109Z,94.12